Terminal Aerodrome Forecast
Issued by NWS

Home | Current Version | Previous Version | Text Only | Print | Product List | Glossary On
Versions: 1 2 3 4 5 6 7 8 9 10 11 12 13 14 15 16 17 18 19 20 21 22 23 24 25 26 27 28 29 30 31 32
000
FTAK31 PAFA 211136
TAFAOM
TAF
PAOM 211136Z 2112/2212 36004KT P6SM SCT035 BKN050 OVC100
     FM211500 36005KT P6SM SCT035 BKN050 BKN100
     FM212100 26006KT P6SM SCT035 BKN050 OVC100
     FM220600 23008KT P6SM VCSH BKN025 OVC035=

USA.gov is the U.S. government's official web portal to all federal, state and local government web resources and services.